createdAt,value
2023-05-18T00:00:20.215Z,12.65
2023-05-18T00:02:49.674Z,12.45
2023-05-18T00:05:19.742Z,13.13
2023-05-18T00:07:48.536Z,10.68
2023-05-18T00:10:18.701Z,9.80
2023-05-18T00:12:49.145Z,10.85
2023-05-18T00:15:18.367Z,10.65
2023-05-18T00:17:47.146Z,13.82
2023-05-18T00:20:15.866Z,12.82
2023-05-18T00:22:44.628Z,9.57
2023-05-18T00:25:13.413Z,10.85
2023-05-18T00:27:43.453Z,10.90
2023-05-18T00:30:14.051Z,11.10
2023-05-18T00:32:42.798Z,10.38
2023-05-18T00:35:11.504Z,11.40
2023-05-18T00:37:40.249Z,11.38
2023-05-18T00:40:11.747Z,8.40
2023-05-18T00:42:40.491Z,8.85
2023-05-18T00:45:13.337Z,8.88
2023-05-18T00:47:42.085Z,7.97
2023-05-18T00:50:12.642Z,8.63
2023-05-18T00:52:42.201Z,9.25
2023-05-18T00:55:13.359Z,8.80
2023-05-18T00:57:45.660Z,9.85
2023-05-18T01:00:17.440Z,8.40
2023-05-18T01:02:46.380Z,8.30
2023-05-18T01:05:15.125Z,9.75
2023-05-18T01:07:43.986Z,10.13
2023-05-18T01:10:17.510Z,8.80
2023-05-18T01:12:54.662Z,10.37
2023-05-18T01:15:33.817Z,11.82
2023-05-18T01:18:15.322Z,10.23
2023-05-18T01:20:50.894Z,8.52
2023-05-18T01:24:03.706Z,12.40
2023-05-18T01:26:38.206Z,10.37
2023-05-18T01:29:11.581Z,10.43
2023-05-18T01:31:41.200Z,9.95
2023-05-18T01:34:09.965Z,10.43
2023-05-18T01:36:38.704Z,9.95
2023-05-18T01:39:07.766Z,10.27
2023-05-18T01:41:52.663Z,14.93
2023-05-18T01:44:28.450Z,9.30
2023-05-18T01:47:03.848Z,9.60
2023-05-18T01:49:38.728Z,10.52
2023-05-18T01:52:12.988Z,6.07
2023-05-18T01:54:47.293Z,7.53
2023-05-18T01:57:20.261Z,8.75
2023-05-18T01:59:50.007Z,9.25
2023-05-18T02:02:19.883Z,8.38
2023-05-18T02:04:49.660Z,6.17
2023-05-18T02:07:18.384Z,6.45
2023-05-18T02:09:47.773Z,9.80
2023-05-18T02:12:17.863Z,11.60
2023-05-18T02:14:46.655Z,9.00
2023-05-18T02:17:15.591Z,7.63
2023-05-18T02:19:46.381Z,7.80
2023-05-18T02:22:15.161Z,7.25
2023-05-18T02:24:43.941Z,9.20
2023-05-18T02:27:14.716Z,8.35
2023-05-18T02:29:45.070Z,8.73
2023-05-18T02:32:14.348Z,6.78
2023-05-18T02:34:43.271Z,6.95
2023-05-18T02:37:14.102Z,10.32
2023-05-18T02:39:42.857Z,7.78
2023-05-18T02:42:11.660Z,5.30
2023-05-18T02:44:42.180Z,10.23
2023-05-18T02:47:15.266Z,11.00
2023-05-18T02:49:44.112Z,7.35
2023-05-18T02:52:12.798Z,10.30
2023-05-18T02:54:41.730Z,10.20
2023-05-18T02:57:18.304Z,11.05
2023-05-18T02:59:58.917Z,7.38
2023-05-18T03:02:30.300Z,5.70
2023-05-18T03:04:59.184Z,7.50
2023-05-18T03:07:28.263Z,5.60
2023-05-18T03:09:58.178Z,5.97
2023-05-18T03:12:26.906Z,9.48
2023-05-18T03:14:55.625Z,6.60
2023-05-18T03:17:24.599Z,11.82
2023-05-18T03:19:54.807Z,9.60
2023-05-18T03:22:23.639Z,7.22
2023-05-18T03:24:55.551Z,8.27
2023-05-18T03:27:25.727Z,9.27
2023-05-18T03:29:54.880Z,6.75
2023-05-18T03:32:24.786Z,6.87
2023-05-18T03:34:55.004Z,10.25
2023-05-18T03:37:24.974Z,6.38
2023-05-18T03:39:54.245Z,6.38
2023-05-18T03:42:23.123Z,8.90
2023-05-18T03:44:51.958Z,5.70
2023-05-18T03:47:22.236Z,7.60
2023-05-18T03:49:51.256Z,5.43
2023-05-18T03:52:24.180Z,7.40
2023-05-18T03:54:53.603Z,7.45
2023-05-18T03:57:22.494Z,8.57
2023-05-18T03:59:51.316Z,10.15
2023-05-18T04:02:20.161Z,6.22
2023-05-18T04:04:49.416Z,9.43
2023-05-18T04:07:18.408Z,6.95
2023-05-18T04:09:48.904Z,5.10
2023-05-18T04:12:17.651Z,3.35
2023-05-18T04:14:50.154Z,6.05
2023-05-18T04:17:22.297Z,9.55
2023-05-18T04:19:51.880Z,4.28
2023-05-18T04:22:22.114Z,5.43
2023-05-18T04:24:55.199Z,5.10
2023-05-18T04:27:24.034Z,8.13
2023-05-18T04:29:52.774Z,5.25
2023-05-18T04:32:21.969Z,5.40
2023-05-18T04:34:50.664Z,4.67
2023-05-18T04:37:21.318Z,7.20
2023-05-18T04:39:54.722Z,7.45
2023-05-18T04:42:23.463Z,3.83
2023-05-18T04:44:52.355Z,4.72
2023-05-18T04:47:22.163Z,3.40
2023-05-18T04:49:52.394Z,9.82
2023-05-18T04:52:21.831Z,5.40
2023-05-18T04:54:51.159Z,7.22
2023-05-18T04:57:21.792Z,9.70
2023-05-18T04:59:50.502Z,4.90
2023-05-18T05:02:19.485Z,7.57
2023-05-18T05:04:48.254Z,5.43
2023-05-18T05:07:17.047Z,7.45
2023-05-18T05:09:48.272Z,7.55
2023-05-18T05:12:17.505Z,4.13
2023-05-18T05:14:48.782Z,6.13
2023-05-18T05:17:17.961Z,6.05
2023-05-18T05:19:46.699Z,9.20
2023-05-18T05:22:16.146Z,3.90
2023-05-18T05:24:45.082Z,8.37
2023-05-18T05:27:14.371Z,5.57
2023-05-18T05:29:44.322Z,6.38
2023-05-18T05:32:14.928Z,5.35
2023-05-18T05:34:48.218Z,5.80
2023-05-18T05:37:17.837Z,13.70
2023-05-18T05:39:46.935Z,7.10
2023-05-18T05:42:19.020Z,5.22
2023-05-18T05:44:48.899Z,8.43
2023-05-18T05:47:19.065Z,4.10
2023-05-18T05:49:47.968Z,6.53
2023-05-18T05:52:16.735Z,5.28
2023-05-18T05:54:46.531Z,4.43
2023-05-18T05:57:16.426Z,8.10
2023-05-18T05:59:46.385Z,6.20
2023-05-18T06:02:16.335Z,5.67
2023-05-18T06:04:46.422Z,4.70
2023-05-18T06:07:15.651Z,4.57
2023-05-18T06:09:44.410Z,6.68
2023-05-18T06:12:13.232Z,3.35
2023-05-18T06:14:42.427Z,5.67
2023-05-18T06:17:11.412Z,5.53
2023-05-18T06:19:40.187Z,5.05
2023-05-18T06:22:10.988Z,5.32
2023-05-18T06:24:47.675Z,3.10
2023-05-18T06:27:33.408Z,5.00
2023-05-18T06:30:23.218Z,7.65
2023-05-18T06:33:04.553Z,3.45
2023-05-18T06:35:33.577Z,4.20
2023-05-18T06:38:04.331Z,4.28
2023-05-18T06:40:33.231Z,5.50
2023-05-18T06:43:02.348Z,5.72
2023-05-18T06:45:48.137Z,5.38
2023-05-18T06:48:27.930Z,5.63
2023-05-18T06:50:56.948Z,4.47
2023-05-18T06:53:27.601Z,4.87
2023-05-18T06:55:57.072Z,5.97
2023-05-18T06:58:26.115Z,6.55
2023-05-18T07:00:55.162Z,3.08
2023-05-18T07:03:25.439Z,7.40
2023-05-18T07:05:54.586Z,3.63
2023-05-18T07:08:24.943Z,2.40
2023-05-18T07:10:57.956Z,4.05
2023-05-18T07:13:26.937Z,3.40
2023-05-18T07:15:55.701Z,5.63
2023-05-18T07:18:24.487Z,3.70
2023-05-18T07:20:53.334Z,1.85
2023-05-18T07:23:22.525Z,3.10
2023-05-18T07:25:51.284Z,3.78
2023-05-18T07:28:21.347Z,1.83
2023-05-18T07:30:50.050Z,6.77
2023-05-18T07:33:18.923Z,2.47
2023-05-18T07:35:47.660Z,1.90
2023-05-18T07:38:16.351Z,1.00
2023-05-18T07:40:45.177Z,1.08
2023-05-18T07:43:13.920Z,1.63
2023-05-18T07:45:44.050Z,3.25
2023-05-18T07:48:12.856Z,0.68
2023-05-18T07:50:41.653Z,0.70
2023-05-18T07:53:10.499Z,2.95
2023-05-18T07:55:39.300Z,1.50
2023-05-18T07:58:07.951Z,1.95
2023-05-18T08:00:37.365Z,2.15
2023-05-18T08:03:08.663Z,2.47
2023-05-18T08:05:40.404Z,3.45
2023-05-18T08:08:12.003Z,1.33
2023-05-18T08:10:40.690Z,1.63
2023-05-18T08:13:09.867Z,0.80
2023-05-18T08:15:40.754Z,2.38
2023-05-18T08:18:10.822Z,3.03
2023-05-18T08:20:39.600Z,2.47
2023-05-18T08:23:08.333Z,1.40
2023-05-18T08:25:37.218Z,1.63
2023-05-18T08:28:06.539Z,2.20
2023-05-18T08:30:35.710Z,0.47
2023-05-18T08:33:04.618Z,1.90
2023-05-18T08:35:36.249Z,1.75
2023-05-18T08:38:05.852Z,1.30
2023-05-18T08:40:41.089Z,2.95
2023-05-18T08:43:19.721Z,0.70
2023-05-18T08:45:56.159Z,1.57
2023-05-18T08:48:28.416Z,0.70
2023-05-18T08:51:02.823Z,0.40
2023-05-18T08:53:34.212Z,1.63
2023-05-18T08:56:03.703Z,0.73
2023-05-18T08:58:39.263Z,1.97
2023-05-18T09:01:08.813Z,2.42
2023-05-18T09:03:39.825Z,2.05
2023-05-18T09:06:10.834Z,1.13
2023-05-18T09:08:40.058Z,2.20
2023-05-18T09:11:10.293Z,0.97
2023-05-18T09:13:40.402Z,1.45
2023-05-18T09:16:09.241Z,2.75
2023-05-18T09:18:38.141Z,2.15
2023-05-18T09:21:07.279Z,1.40
2023-05-18T09:23:37.690Z,1.03
2023-05-18T09:26:10.059Z,0.63
2023-05-18T09:28:40.846Z,0.88
2023-05-18T09:31:12.758Z,1.00
2023-05-18T09:33:44.409Z,1.58
2023-05-18T09:36:15.307Z,1.33
2023-05-18T09:38:47.413Z,2.22
2023-05-18T09:41:18.387Z,1.85
2023-05-18T09:43:50.765Z,1.15
2023-05-18T09:46:21.046Z,1.10
2023-05-18T09:48:53.780Z,2.83
2023-05-18T09:51:25.548Z,0.77
2023-05-18T09:54:00.586Z,0.52
2023-05-18T09:56:29.464Z,0.98
2023-05-18T09:58:58.327Z,0.93
2023-05-18T10:01:27.097Z,1.73
2023-05-18T10:04:05.154Z,0.38
2023-05-18T10:06:34.271Z,1.65
2023-05-18T10:09:05.862Z,2.38
2023-05-18T10:11:36.467Z,3.90
2023-05-18T10:14:05.170Z,1.03
2023-05-18T10:16:34.525Z,0.88
2023-05-18T10:19:06.685Z,2.92
2023-05-18T10:21:38.600Z,1.88
2023-05-18T10:24:16.095Z,2.42
2023-05-18T10:26:47.996Z,0.90
2023-05-18T10:29:18.405Z,0.65
2023-05-18T10:31:48.973Z,1.30
2023-05-18T10:34:20.467Z,4.63
2023-05-18T10:36:50.369Z,1.10
2023-05-18T10:39:20.960Z,1.47
2023-05-18T10:41:55.858Z,1.20
2023-05-18T10:44:28.499Z,1.75
2023-05-18T10:46:57.692Z,1.50
2023-05-18T10:49:30.106Z,1.13
2023-05-18T10:52:01.194Z,0.53
2023-05-18T10:54:31.742Z,1.50
2023-05-18T10:57:02.880Z,1.95
2023-05-18T10:59:31.666Z,1.48
2023-05-18T11:02:03.330Z,1.70
2023-05-18T11:04:34.379Z,0.57
2023-05-18T11:07:03.442Z,1.30
2023-05-18T11:09:34.892Z,1.85
2023-05-18T11:12:03.861Z,1.52
2023-05-18T11:14:34.068Z,1.05
2023-05-18T11:17:21.287Z,0.83
2023-05-18T11:20:17.500Z,0.63
2023-05-18T11:22:52.642Z,0.75
2023-05-18T11:25:44.817Z,0.75
2023-05-18T11:28:15.066Z,2.55
2023-05-18T11:30:51.296Z,3.50
2023-05-18T11:33:30.985Z,2.55
2023-05-18T11:36:03.958Z,0.60
2023-05-18T11:38:54.553Z,1.25
2023-05-18T11:41:39.400Z,2.20
2023-05-18T11:44:19.736Z,3.67
2023-05-18T11:47:03.681Z,4.97
2023-05-18T11:49:34.233Z,1.30
2023-05-18T11:52:07.775Z,3.20
2023-05-18T11:54:41.804Z,1.85
2023-05-18T11:57:12.706Z,1.00
2023-05-18T11:59:43.699Z,1.02
2023-05-18T12:02:20.829Z,1.80
2023-05-18T12:04:53.132Z,3.38
2023-05-18T12:07:23.644Z,0.63
2023-05-18T12:09:52.513Z,2.33
2023-05-18T12:12:24.165Z,2.53
2023-05-18T12:14:57.463Z,1.55
2023-05-18T12:17:38.645Z,3.28
2023-05-18T12:20:09.655Z,1.85
2023-05-18T12:22:38.566Z,4.00
2023-05-18T12:25:11.436Z,4.47
2023-05-18T12:27:42.839Z,4.00
2023-05-18T12:30:14.045Z,1.42
2023-05-18T12:32:47.140Z,6.22
2023-05-18T12:35:16.096Z,1.53
2023-05-18T12:37:45.941Z,3.17
2023-05-18T12:40:18.088Z,1.70
2023-05-18T12:43:00.771Z,1.83
2023-05-18T12:45:32.211Z,1.75
2023-05-18T12:48:06.527Z,7.13
2023-05-18T12:50:37.298Z,2.63
2023-05-18T12:53:06.579Z,2.25
2023-05-18T12:55:35.593Z,6.47
2023-05-18T12:58:07.711Z,2.58
2023-05-18T13:00:37.566Z,3.77
2023-05-18T13:03:12.769Z,3.95
2023-05-18T13:05:45.032Z,2.05
2023-05-18T13:08:18.182Z,2.60
2023-05-18T13:10:51.018Z,0.82
2023-05-18T13:13:31.246Z,3.23
2023-05-18T13:16:00.543Z,7.82
2023-05-18T13:18:30.163Z,2.20
2023-05-18T13:20:58.999Z,5.47
2023-05-18T13:23:31.547Z,1.55
2023-05-18T13:26:00.176Z,4.73
2023-05-18T13:28:30.120Z,1.10
2023-05-18T13:30:58.670Z,2.30
2023-05-18T13:33:27.233Z,3.28
2023-05-18T13:35:55.832Z,2.20
2023-05-18T13:38:24.524Z,3.13
2023-05-18T13:40:53.165Z,3.03
2023-05-18T13:43:21.981Z,0.85
2023-05-18T13:45:52.046Z,2.58
2023-05-18T13:48:20.669Z,1.75
2023-05-18T13:50:49.502Z,2.83
2023-05-18T13:53:18.174Z,3.20
2023-05-18T13:55:46.835Z,2.65
2023-05-18T13:58:15.363Z,5.18
2023-05-18T14:00:44.715Z,1.65
2023-05-18T14:03:17.789Z,5.20
2023-05-18T14:05:46.702Z,1.85
2023-05-18T14:08:15.380Z,4.45
2023-05-18T14:10:44.003Z,2.72
2023-05-18T14:13:12.668Z,1.23
2023-05-18T14:15:41.381Z,3.37
2023-05-18T14:18:10.393Z,3.53
2023-05-18T14:20:40.445Z,4.28
2023-05-18T14:23:09.821Z,1.23
2023-05-18T14:25:39.052Z,4.20
2023-05-18T14:28:07.685Z,3.60
2023-05-18T14:30:36.312Z,2.08
2023-05-18T14:33:05.092Z,2.85
2023-05-18T14:35:34.383Z,1.98
2023-05-18T14:38:04.550Z,3.70
2023-05-18T14:40:33.537Z,2.93
2023-05-18T14:43:02.474Z,1.48
2023-05-18T14:45:53.531Z,2.70
2023-05-18T14:48:29.644Z,4.20
2023-05-18T14:50:58.414Z,4.95
2023-05-18T14:53:28.377Z,4.10
2023-05-18T14:55:57.017Z,2.83
2023-05-18T14:58:25.957Z,2.28
2023-05-18T15:00:54.630Z,3.47
2023-05-18T15:03:24.945Z,2.50
2023-05-18T15:05:55.143Z,5.90
2023-05-18T15:08:24.010Z,4.50
2023-05-18T15:10:54.089Z,3.15
2023-05-18T15:13:22.835Z,4.15
2023-05-18T15:15:51.442Z,3.03
2023-05-18T15:18:20.231Z,3.93
2023-05-18T15:20:48.817Z,5.90
2023-05-18T15:23:17.757Z,5.68
2023-05-18T15:25:46.600Z,4.32
2023-05-18T15:28:17.449Z,4.35
2023-05-18T15:30:49.168Z,2.43
2023-05-18T15:33:19.139Z,3.25
2023-05-18T15:35:48.569Z,3.42
2023-05-18T15:38:17.911Z,2.22
2023-05-18T15:40:48.027Z,4.50
2023-05-18T15:43:20.616Z,1.17
2023-05-18T15:45:49.285Z,1.20
2023-05-18T15:48:17.967Z,3.15
2023-05-18T15:50:46.578Z,2.65
2023-05-18T15:53:19.677Z,2.17
2023-05-18T15:55:50.768Z,2.13
2023-05-18T15:58:22.505Z,3.20
2023-05-18T16:00:52.243Z,3.50
2023-05-18T16:03:37.259Z,2.13
2023-05-18T16:06:06.492Z,1.73
2023-05-18T16:08:35.064Z,2.20
2023-05-18T16:11:05.472Z,1.70
2023-05-18T16:13:35.553Z,2.80
2023-05-18T16:16:06.631Z,3.53
2023-05-18T16:18:35.796Z,2.95
2023-05-18T16:21:06.427Z,2.63
2023-05-18T16:23:35.387Z,2.33
2023-05-18T16:26:09.014Z,1.08
2023-05-18T16:28:46.552Z,1.33
2023-05-18T16:31:18.724Z,1.60
2023-05-18T16:33:49.676Z,1.53
2023-05-18T16:36:18.571Z,1.58
2023-05-18T16:38:47.425Z,2.15
2023-05-18T16:41:17.047Z,1.23
2023-05-18T16:43:47.031Z,0.70
2023-05-18T16:46:17.976Z,2.53
2023-05-18T16:48:46.729Z,1.70
2023-05-18T16:51:15.750Z,1.95
2023-05-18T16:53:45.666Z,1.55
2023-05-18T16:56:14.570Z,1.60
2023-05-18T16:58:43.167Z,1.33
2023-05-18T17:01:26.564Z,3.53
2023-05-18T17:03:56.999Z,1.85
2023-05-18T17:06:26.202Z,3.08
2023-05-18T17:08:58.126Z,4.32
2023-05-18T17:11:33.038Z,1.67
2023-05-18T17:14:04.483Z,2.25
2023-05-18T17:16:40.230Z,3.63
2023-05-18T17:19:09.211Z,3.10
2023-05-18T17:21:37.837Z,2.15
2023-05-18T17:24:07.151Z,2.40
2023-05-18T17:26:35.910Z,1.45
2023-05-18T17:29:04.464Z,3.63
2023-05-18T17:31:34.421Z,4.10
2023-05-18T17:34:03.011Z,2.83
2023-05-18T17:36:33.048Z,3.83
2023-05-18T17:39:01.626Z,3.90
2023-05-18T17:41:30.206Z,2.80
2023-05-18T17:43:58.758Z,2.50
2023-05-18T17:46:30.922Z,2.50
2023-05-18T17:49:02.081Z,4.03
2023-05-18T17:51:33.618Z,3.40
2023-05-18T17:54:02.179Z,4.13
2023-05-18T17:56:31.866Z,2.40
2023-05-18T17:59:01.558Z,4.88
2023-05-18T18:01:31.115Z,2.60
2023-05-18T18:04:02.185Z,7.38
2023-05-18T18:06:35.680Z,3.95
2023-05-18T18:09:05.938Z,3.03
2023-05-18T18:11:34.799Z,2.83
2023-05-18T18:14:03.534Z,5.50
2023-05-18T18:16:32.668Z,2.88
2023-05-18T18:19:02.938Z,1.70
2023-05-18T18:21:32.217Z,2.58
2023-05-18T18:24:02.804Z,4.85
2023-05-18T18:26:32.364Z,2.40
2023-05-18T18:29:02.203Z,2.45
2023-05-18T18:31:33.650Z,5.05
2023-05-18T18:34:04.098Z,4.13
2023-05-18T18:36:33.431Z,1.67
2023-05-18T18:39:05.880Z,2.53
2023-05-18T18:41:34.648Z,2.63
2023-05-18T18:44:03.620Z,3.33
2023-05-18T18:46:32.517Z,3.58
2023-05-18T18:49:01.262Z,1.27
2023-05-18T18:51:31.468Z,6.13
2023-05-18T18:54:00.401Z,3.00
2023-05-18T18:56:29.312Z,1.60
2023-05-18T18:58:58.248Z,2.95
2023-05-18T19:01:27.086Z,3.33
2023-05-18T19:03:56.108Z,3.27
2023-05-18T19:06:26.143Z,4.88
2023-05-18T19:09:00.968Z,2.40
2023-05-18T19:11:39.363Z,2.60
2023-05-18T19:14:11.609Z,3.20
2023-05-18T19:16:41.617Z,2.07
2023-05-18T19:19:10.406Z,3.60
2023-05-18T19:21:39.821Z,3.95
2023-05-18T19:24:12.661Z,5.07
2023-05-18T19:27:08.500Z,5.13
2023-05-18T19:29:38.001Z,4.37
2023-05-18T19:32:08.783Z,4.20
2023-05-18T19:34:39.541Z,2.33
2023-05-18T19:37:08.579Z,2.10
2023-05-18T19:39:38.826Z,3.60
2023-05-18T19:42:07.902Z,2.30
2023-05-18T19:44:36.858Z,3.80
2023-05-18T19:47:06.964Z,3.33
2023-05-18T19:49:35.786Z,3.40
2023-05-18T19:52:08.324Z,1.95
2023-05-18T19:54:39.577Z,4.17
2023-05-18T19:57:08.325Z,1.65
2023-05-18T19:59:37.107Z,3.83
2023-05-18T20:02:05.916Z,2.33
2023-05-18T20:04:34.696Z,2.38
2023-05-18T20:07:03.878Z,1.83
2023-05-18T20:09:32.582Z,2.85
2023-05-18T20:12:03.036Z,3.20
2023-05-18T20:14:33.392Z,3.28
2023-05-18T20:17:03.344Z,2.33
2023-05-18T20:19:32.209Z,3.77
2023-05-18T20:22:00.943Z,3.92
2023-05-18T20:24:29.577Z,4.65
2023-05-18T20:26:58.289Z,3.35
2023-05-18T20:29:28.362Z,4.05
2023-05-18T20:31:57.243Z,5.00
2023-05-18T20:34:25.980Z,2.80
2023-05-18T20:36:54.694Z,4.57
2023-05-18T20:39:23.558Z,2.38
2023-05-18T20:41:53.741Z,3.50
2023-05-18T20:44:23.811Z,3.03
2023-05-18T20:46:54.388Z,3.97
2023-05-18T20:49:24.954Z,3.70
2023-05-18T20:51:53.788Z,3.00
2023-05-18T20:54:22.464Z,1.73
2023-05-18T20:56:52.041Z,4.73
2023-05-18T20:59:20.730Z,5.93
2023-05-18T21:01:50.999Z,2.63
2023-05-18T21:04:21.948Z,3.65
2023-05-18T21:06:50.789Z,8.75
2023-05-18T21:09:19.888Z,3.97
2023-05-18T21:11:50.850Z,6.03
2023-05-18T21:14:20.797Z,0.88
2023-05-18T21:17:02.155Z,5.00
2023-05-18T21:19:32.548Z,3.22
2023-05-18T21:22:02.817Z,4.63
2023-05-18T21:24:36.677Z,5.57
2023-05-18T21:27:06.489Z,6.15
2023-05-18T21:29:35.958Z,3.42
2023-05-18T21:32:05.919Z,6.40
2023-05-18T21:34:36.451Z,4.20
2023-05-18T21:37:05.618Z,5.32
2023-05-18T21:39:34.372Z,6.38
2023-05-18T21:42:03.846Z,5.32
2023-05-18T21:44:32.522Z,5.57
2023-05-18T21:47:01.235Z,4.03
2023-05-18T21:49:30.326Z,5.05
2023-05-18T21:52:01.109Z,5.30
2023-05-18T21:54:32.674Z,3.75
2023-05-18T21:57:01.747Z,7.65
2023-05-18T21:59:30.577Z,13.27
2023-05-18T22:01:59.288Z,3.58
2023-05-18T22:04:28.074Z,6.43
2023-05-18T22:06:56.783Z,3.25
2023-05-18T22:09:26.878Z,4.00
2023-05-18T22:11:55.586Z,3.70
2023-05-18T22:14:24.337Z,4.32
2023-05-18T22:16:52.988Z,3.92
2023-05-18T22:19:21.766Z,3.80
2023-05-18T22:21:50.661Z,3.90
2023-05-18T22:24:19.311Z,2.77
2023-05-18T22:26:49.396Z,2.50
2023-05-18T22:29:18.115Z,4.20
2023-05-18T22:31:46.875Z,3.58
2023-05-18T22:34:15.621Z,3.78
2023-05-18T22:36:44.299Z,4.67
2023-05-18T22:39:12.981Z,5.60
2023-05-18T22:41:41.621Z,8.75
2023-05-18T22:44:11.927Z,8.77
2023-05-18T22:46:40.644Z,2.95
2023-05-18T22:49:09.701Z,2.50
2023-05-18T22:51:38.410Z,3.08
2023-05-18T22:54:07.160Z,4.65
2023-05-18T22:56:35.986Z,5.70
2023-05-18T22:59:04.698Z,5.30
2023-05-18T23:01:37.768Z,4.67
2023-05-18T23:04:07.368Z,5.38
2023-05-18T23:06:36.220Z,1.70
2023-05-18T23:09:05.137Z,5.38
2023-05-18T23:11:35.031Z,6.22
2023-05-18T23:14:04.269Z,3.63
2023-05-18T23:16:34.511Z,5.03
2023-05-18T23:19:03.241Z,3.42
2023-05-18T23:21:32.969Z,4.25
2023-05-18T23:24:01.631Z,3.33
2023-05-18T23:26:30.483Z,4.60
2023-05-18T23:28:59.157Z,5.78
2023-05-18T23:31:27.785Z,4.43
2023-05-18T23:33:58.738Z,3.42
2023-05-18T23:36:30.523Z,5.20
2023-05-18T23:39:00.409Z,3.97
2023-05-18T23:41:32.387Z,3.35
2023-05-18T23:44:01.920Z,6.80
2023-05-18T23:46:32.120Z,2.67
2023-05-18T23:49:03.696Z,4.78
2023-05-18T23:51:36.372Z,6.17
2023-05-18T23:54:07.551Z,4.85
2023-05-18T23:56:37.310Z,4.10
2023-05-18T23:59:06.970Z,2.58
